Time;durP1;ratioP1;P1;durP2;ratioP2;P2;SDS_P1;SDS_P2;PMS_P1;PMS_P2;Temp;Humidity;BMP_temperature;BMP_pressure;BME280_temperature;BME280_humidity;BME280_pressure;Samples;Min_cycle;Max_cycle;Signal;HPM_P1;HPM_P2
2024/01/24 00:01:14;;;;;;;7.93;6.47;;;10.70;99.90;;;;;;5113979;28;20555;-64
2024/01/24 00:03:40;;;;;;;11.13;6.68;;;10.70;99.90;;;;;;5113818;28;20177;-63
2024/01/24 00:06:06;;;;;;;15.32;6.65;;;10.80;99.90;;;;;;5114135;28;20168;-63
2024/01/24 00:08:33;;;;;;;8.38;6.43;;;10.90;99.90;;;;;;5114061;28;20196;-63
2024/01/24 00:11:01;;;;;;;10.25;6.35;;;10.90;99.90;;;;;;5114014;28;20177;-63
2024/01/24 00:13:27;;;;;;;12.05;7.05;;;10.90;99.90;;;;;;5113851;28;20710;-64
2024/01/24 00:15:53;;;;;;;10.00;5.90;;;11.00;99.90;;;;;;5114139;28;20164;-63
2024/01/24 00:18:19;;;;;;;9.13;6.10;;;11.00;99.90;;;;;;5113678;28;20278;-63
2024/01/24 00:20:45;;;;;;;8.45;6.13;;;11.00;99.90;;;;;;5113750;28;20173;-64
2024/01/24 00:23:11;;;;;;;7.68;6.20;;;11.10;99.90;;;;;;5113777;28;20164;-64
2024/01/24 00:25:37;;;;;;;12.10;6.25;;;11.00;99.90;;;;;;5113641;28;20228;-63
2024/01/24 00:28:04;;;;;;;12.40;7.03;;;11.10;99.90;;;;;;5113681;28;20196;-63
2024/01/24 00:30:30;;;;;;;9.45;6.10;;;11.00;99.90;;;;;;5113668;28;20180;-63
2024/01/24 00:32:56;;;;;;;10.98;6.82;;;11.00;99.90;;;;;;5113482;28;20523;-63
2024/01/24 00:35:21;;;;;;;11.18;6.68;;;11.00;99.90;;;;;;5113934;28;20180;-63
2024/01/24 00:37:47;;;;;;;8.27;6.55;;;11.00;99.90;;;;;;5116794;28;20207;-64
2024/01/24 00:40:13;;;;;;;11.77;7.43;;;11.10;99.90;;;;;;5118405;28;20251;-64
2024/01/24 00:42:42;;;;;;;7.95;6.45;;;11.20;99.90;;;;;;5118000;28;20522;-64
2024/01/24 00:45:10;;;;;;;9.77;6.10;;;11.20;99.90;;;;;;5117903;28;20223;-63
2024/01/24 00:47:36;;;;;;;6.85;5.43;;;11.20;99.90;;;;;;5117661;28;20563;-64
2024/01/24 00:50:04;;;;;;;7.40;5.63;;;11.20;99.90;;;;;;5117641;28;20172;-63
2024/01/24 00:52:30;;;;;;;10.10;6.03;;;11.20;99.90;;;;;;5117582;28;20184;-64
2024/01/24 00:54:56;;;;;;;7.00;5.10;;;11.30;99.90;;;;;;5117688;28;20169;-64
2024/01/24 00:57:22;;;;;;;7.95;5.78;;;11.20;99.90;;;;;;5117980;28;20245;-64
2024/01/24 00:59:48;;;;;;;7.30;5.68;;;11.30;99.90;;;;;;5117375;28;20200;-63
2024/01/24 01:02:13;;;;;;;7.82;5.55;;;11.20;99.90;;;;;;5117083;28;20175;-63
2024/01/24 01:04:39;;;;;;;8.32;5.63;;;11.30;99.90;;;;;;5117515;28;20648;-64
2024/01/24 01:07:05;;;;;;;7.28;5.35;;;11.30;99.90;;;;;;5117212;28;20197;-63
2024/01/24 01:09:31;;;;;;;6.03;5.53;;;11.30;99.90;;;;;;5117247;28;20232;-64
2024/01/24 01:11:57;;;;;;;6.10;5.60;;;11.40;99.90;;;;;;5117193;28;20625;-63
2024/01/24 01:14:23;;;;;;;6.70;5.32;;;11.40;99.90;;;;;;5117308;28;20180;-63
2024/01/24 01:16:49;;;;;;;5.80;4.47;;;11.40;99.90;;;;;;5117121;28;20176;-63
2024/01/24 01:19:15;;;;;;;5.70;5.13;;;11.40;99.90;;;;;;5117886;28;20152;-64
2024/01/24 01:21:41;;;;;;;6.47;5.28;;;11.40;99.90;;;;;;5117384;28;20310;-64
2024/01/24 01:24:08;;;;;;;8.52;5.63;;;11.40;99.90;;;;;;5117077;28;20196;-63
2024/01/24 01:26:34;;;;;;;6.05;5.43;;;11.50;99.90;;;;;;5117004;28;20199;-63
2024/01/24 01:28:59;;;;;;;9.18;5.70;;;11.50;99.90;;;;;;5116943;27;20665;-64
2024/01/24 01:31:25;;;;;;;8.25;5.80;;;11.50;99.90;;;;;;5116838;28;20188;-63
2024/01/24 01:33:51;;;;;;;7.60;5.95;;;11.50;99.90;;;;;;5116766;28;20229;-63
2024/01/24 01:36:17;;;;;;;8.95;5.78;;;11.50;99.90;;;;;;5117624;28;20161;-64
2024/01/24 01:38:42;;;;;;;7.22;5.70;;;11.50;99.90;;;;;;5117434;28;20192;-64
2024/01/24 01:41:08;;;;;;;7.82;5.65;;;11.60;99.90;;;;;;5117664;28;20300;-63
2024/01/24 01:43:34;;;;;;;8.45;6.53;;;11.80;99.90;;;;;;5118625;28;20179;-63
2024/01/24 01:46:10;;;;;;;8.73;5.70;;;11.80;99.90;;;;;;5117582;28;20203;-65
2024/01/24 01:48:37;;;;;;;7.78;5.60;;;11.90;99.90;;;;;;5116966;28;20203;-64
2024/01/24 01:51:03;;;;;;;9.68;6.07;;;12.00;99.90;;;;;;5117024;28;20233;-63
2024/01/24 01:53:29;;;;;;;6.97;5.55;;;12.10;99.90;;;;;;5116520;28;20172;-64
2024/01/24 01:55:56;;;;;;;8.20;5.28;;;12.10;99.90;;;;;;5116745;28;20637;-64
2024/01/24 01:58:24;;;;;;;6.00;5.13;;;12.10;99.90;;;;;;5117050;28;20224;-64
2024/01/24 02:00:50;;;;;;;6.22;5.15;;;12.00;99.90;;;;;;5116922;28;20632;-64
2024/01/24 02:03:16;;;;;;;5.95;4.78;;;12.00;99.90;;;;;;5116729;28;20630;-63
2024/01/24 02:05:44;;;;;;;7.13;4.78;;;12.10;99.90;;;;;;5116112;28;20248;-65
2024/01/24 02:08:10;;;;;;;6.82;4.97;;;12.20;99.90;;;;;;5116295;28;20188;-65
2024/01/24 02:10:35;;;;;;;9.63;5.05;;;12.20;99.90;;;;;;5116344;28;20244;-64
2024/01/24 02:13:02;;;;;;;10.38;5.15;;;12.20;99.90;;;;;;5116408;28;20171;-63
2024/01/24 02:15:29;;;;;;;8.68;4.65;;;12.30;99.90;;;;;;5116316;27;20164;-64
2024/01/24 02:17:55;;;;;;;7.95;4.88;;;12.30;99.90;;;;;;5115663;28;20196;-64
2024/01/24 02:20:22;;;;;;;7.38;4.90;;;12.30;99.90;;;;;;5115946;28;20179;-64
2024/01/24 02:22:47;;;;;;;7.53;4.63;;;12.30;99.90;;;;;;5116009;28;20281;-63
2024/01/24 02:25:13;;;;;;;7.93;4.90;;;12.20;99.90;;;;;;5115802;28;20677;-64
2024/01/24 02:27:39;;;;;;;8.55;4.78;;;12.10;99.90;;;;;;5115902;28;20687;-64
2024/01/24 02:30:05;;;;;;;9.05;4.95;;;12.00;99.90;;;;;;5116079;28;20167;-64
2024/01/24 02:32:31;;;;;;;6.22;4.93;;;12.00;99.90;;;;;;5115541;28;20217;-63
2024/01/24 02:34:57;;;;;;;9.63;4.95;;;12.00;99.90;;;;;;5115784;28;20176;-63
2024/01/24 02:37:23;;;;;;;5.82;4.70;;;11.90;99.90;;;;;;5114289;28;20234;-64
2024/01/24 02:39:48;;;;;;;9.75;5.75;;;11.80;99.90;;;;;;5115623;28;20176;-64
2024/01/24 02:42:14;;;;;;;6.30;4.53;;;11.80;99.90;;;;;;5115870;28;20208;-64
2024/01/24 02:44:40;;;;;;;7.43;4.90;;;11.80;99.90;;;;;;5115769;28;20200;-64
2024/01/24 02:47:06;;;;;;;6.60;4.95;;;11.80;99.90;;;;;;5115167;28;20195;-63
2024/01/24 02:49:32;;;;;;;8.55;4.63;;;11.80;99.90;;;;;;5115641;28;20169;-64
2024/01/24 02:52:01;;;;;;;5.28;4.63;;;11.80;99.90;;;;;;5115219;28;20561;-63
2024/01/24 02:54:28;;;;;;;6.18;4.75;;;11.80;99.90;;;;;;5116259;28;20175;-64
2024/01/24 02:56:54;;;;;;;7.00;4.47;;;11.80;99.90;;;;;;5115210;28;20265;-63
2024/01/24 02:59:19;;;;;;;5.40;4.40;;;11.80;99.90;;;;;;5115323;28;20178;-64
2024/01/24 03:01:45;;;;;;;6.88;4.35;;;11.80;99.90;;;;;;5115448;28;20199;-65
2024/01/24 03:04:11;;;;;;;4.53;4.13;;;11.80;99.90;;;;;;5115026;28;20196;-64
2024/01/24 03:06:39;;;;;;;4.57;4.15;;;11.80;99.90;;;;;;5115726;28;20156;-64
2024/01/24 03:09:05;;;;;;;10.25;4.43;;;11.80;99.90;;;;;;5115113;28;20192;-63
2024/01/24 03:11:31;;;;;;;6.43;4.22;;;11.90;99.90;;;;;;5115070;28;20168;-63
2024/01/24 03:13:56;;;;;;;5.68;3.90;;;11.90;99.90;;;;;;5115331;28;20173;-63
2024/01/24 03:16:22;;;;;;;6.78;4.10;;;11.90;99.90;;;;;;5115593;28;20169;-64
2024/01/24 03:18:48;;;;;;;8.52;3.45;;;12.00;99.90;;;;;;5114738;28;20681;-64
2024/01/24 03:21:16;;;;;;;4.38;3.97;;;12.00;99.90;;;;;;5115370;28;20537;-64
2024/01/24 03:23:42;;;;;;;3.80;3.50;;;12.10;99.90;;;;;;5114791;28;20175;-64
2024/01/24 03:26:08;;;;;;;4.85;3.45;;;12.10;99.90;;;;;;5114805;28;20200;-64
2024/01/24 03:28:34;;;;;;;6.25;3.42;;;12.20;99.90;;;;;;5114746;28;20572;-64
2024/01/24 03:31:01;;;;;;;3.60;3.30;;;12.30;99.90;;;;;;5114865;28;20702;-64
2024/01/24 03:33:27;;;;;;;4.63;3.70;;;12.30;99.90;;;;;;5113235;28;20180;-64
2024/01/24 03:35:53;;;;;;;4.47;3.25;;;12.40;99.90;;;;;;5114660;28;20176;-64
2024/01/24 03:38:19;;;;;;;5.85;3.10;;;12.50;99.90;;;;;;5114559;28;20215;-64
2024/01/24 03:40:45;;;;;;;3.58;3.28;;;12.50;99.90;;;;;;5114602;28;20261;-64
2024/01/24 03:43:11;;;;;;;3.47;3.17;;;12.50;99.90;;;;;;5114451;28;20180;-65
2024/01/24 03:45:37;;;;;;;3.30;3.00;;;12.60;99.90;;;;;;5114978;28;20188;-64
2024/01/24 03:48:07;;;;;;;3.20;3.00;;;12.60;99.90;;;;;;5114110;28;20188;-65
2024/01/24 03:50:33;;;;;;;4.20;3.20;;;12.70;99.90;;;;;;5114188;28;20180;-64
2024/01/24 03:53:02;;;;;;;3.13;2.92;;;12.80;99.90;;;;;;5114537;28;20683;-64
2024/01/24 03:55:29;;;;;;;3.45;2.70;;;12.80;99.90;;;;;;5112891;28;20188;-63
2024/01/24 03:57:55;;;;;;;2.90;2.80;;;12.80;99.90;;;;;;5114138;28;20282;-62
2024/01/24 04:00:21;;;;;;;3.40;3.00;;;12.70;99.90;;;;;;5114088;28;20211;-64
2024/01/24 04:02:47;;;;;;;3.47;3.15;;;12.70;99.90;;;;;;5113859;28;20523;-64
2024/01/24 04:05:14;;;;;;;3.08;2.80;;;12.70;99.90;;;;;;5112627;28;20196;-64
2024/01/24 04:07:40;;;;;;;4.40;2.90;;;12.80;99.90;;;;;;5113973;28;20203;-63
2024/01/24 04:10:06;;;;;;;2.88;2.70;;;12.70;99.90;;;;;;5114028;28;20169;-64
2024/01/24 04:12:32;;;;;;;3.13;2.70;;;12.70;99.90;;;;;;5113667;28;20251;-64
2024/01/24 04:14:58;;;;;;;3.10;2.85;;;12.60;99.90;;;;;;5114287;28;20195;-64
2024/01/24 04:17:24;;;;;;;2.70;2.60;;;12.40;99.90;;;;;;5113417;28;20227;-63
2024/01/24 04:19:49;;;;;;;3.13;2.85;;;12.30;99.90;;;;;;5114351;28;20180;-63
2024/01/24 04:22:16;;;;;;;2.90;2.70;;;12.30;99.90;;;;;;5113936;28;20237;-63
2024/01/24 04:24:45;;;;;;;2.72;2.63;;;12.20;99.90;;;;;;5113978;28;20282;-63
2024/01/24 04:27:11;;;;;;;2.60;2.50;;;12.30;99.90;;;;;;5113653;28;20737;-63
2024/01/24 04:29:37;;;;;;;3.80;2.90;;;12.30;99.90;;;;;;5113996;28;20631;-63
2024/01/24 04:32:03;;;;;;;3.72;2.60;;;12.30;99.90;;;;;;5113854;28;20264;-63
2024/01/24 04:34:29;;;;;;;2.78;2.63;;;12.40;99.90;;;;;;5112303;28;20230;-62
2024/01/24 04:36:54;;;;;;;3.00;2.80;;;12.40;99.90;;;;;;5113729;28;20537;-63
2024/01/24 04:39:21;;;;;;;3.10;2.90;;;12.20;99.90;;;;;;5113683;28;20172;-63
2024/01/24 04:41:47;;;;;;;2.85;2.70;;;12.10;99.90;;;;;;5112562;28;20598;-64
2024/01/24 04:44:14;;;;;;;3.42;3.00;;;12.00;99.90;;;;;;5113725;28;20192;-64
2024/01/24 04:46:40;;;;;;;3.28;2.97;;;12.00;99.90;;;;;;5113704;28;20165;-63
2024/01/24 04:49:07;;;;;;;3.63;3.42;;;12.00;99.90;;;;;;5113311;28;20193;-64
2024/01/24 04:51:33;;;;;;;4.70;4.30;;;12.10;99.90;;;;;;5113718;28;20748;-64
2024/01/24 04:53:59;;;;;;;5.20;3.95;;;12.00;99.90;;;;;;5113802;28;20169;-65
2024/01/24 04:56:25;;;;;;;3.78;3.50;;;12.10;99.90;;;;;;5113579;28;20169;-65
2024/01/24 04:58:50;;;;;;;3.30;3.10;;;12.00;99.90;;;;;;5113960;28;20283;-64
2024/01/24 05:01:16;;;;;;;3.13;3.03;;;12.00;99.90;;;;;;5113519;28;20180;-64
2024/01/24 05:03:42;;;;;;;3.58;3.30;;;12.00;99.90;;;;;;5113295;28;20522;-63
2024/01/24 05:06:08;;;;;;;3.25;2.95;;;12.10;99.90;;;;;;5113252;28;20224;-64
2024/01/24 05:08:34;;;;;;;2.95;2.80;;;12.20;99.90;;;;;;5113133;28;20196;-65
2024/01/24 05:10:59;;;;;;;3.67;2.90;;;12.20;99.90;;;;;;5113840;28;20167;-65
2024/01/24 05:13:25;;;;;;;5.20;2.97;;;12.30;99.90;;;;;;5113375;28;20538;-64
2024/01/24 05:15:51;;;;;;;2.90;2.80;;;12.30;99.90;;;;;;5113742;28;20562;-63
2024/01/24 05:18:17;;;;;;;3.05;2.80;;;12.30;99.90;;;;;;5113327;28;20225;-64
2024/01/24 05:20:42;;;;;;;3.42;3.08;;;12.30;99.90;;;;;;5113289;28;20188;-64
2024/01/24 05:23:08;;;;;;;5.07;3.15;;;12.30;99.90;;;;;;5115153;28;20187;-64
2024/01/24 05:25:35;;;;;;;8.10;3.97;;;12.30;99.90;;;;;;5116948;28;20287;-64
2024/01/24 05:28:01;;;;;;;3.50;3.08;;;12.30;99.90;;;;;;5115663;28;20192;-64
2024/01/24 05:30:27;;;;;;;4.85;3.40;;;12.30;99.90;;;;;;5116683;28;20188;-65
2024/01/24 05:32:57;;;;;;;3.95;2.92;;;12.30;99.90;;;;;;5116512;28;20179;-66
2024/01/24 05:35:23;;;;;;;2.95;2.75;;;12.20;99.90;;;;;;5117384;27;20270;-65
2024/01/24 05:37:49;;;;;;;3.30;3.00;;;12.20;99.90;;;;;;5116720;28;20275;-64
2024/01/24 05:40:15;;;;;;;7.65;3.60;;;12.10;99.90;;;;;;5116664;28;20173;-65
2024/01/24 05:42:41;;;;;;;6.25;3.33;;;12.10;99.90;;;;;;5117135;28;20171;-65
2024/01/24 05:45:07;;;;;;;10.88;4.00;;;12.10;99.90;;;;;;5116578;28;20196;-66
2024/01/24 05:47:33;;;;;;;5.53;3.50;;;12.10;99.90;;;;;;5116488;28;20188;-65
2024/01/24 05:50:02;;;;;;;9.05;3.75;;;12.20;99.90;;;;;;5116200;28;20213;-64
2024/01/24 05:52:28;;;;;;;10.35;3.72;;;12.20;99.90;;;;;;5116338;28;20181;-65
2024/01/24 05:54:54;;;;;;;7.72;4.10;;;12.10;99.90;;;;;;5115103;28;20172;-66
2024/01/24 05:57:21;;;;;;;8.50;4.07;;;12.10;99.90;;;;;;5116685;28;20564;-64
2024/01/24 05:59:47;;;;;;;9.60;4.25;;;12.10;99.90;;;;;;5116561;28;20172;-65
2024/01/24 06:02:13;;;;;;;9.20;4.70;;;12.10;99.90;;;;;;5116201;28;20633;-64
2024/01/24 06:04:39;;;;;;;11.38;4.57;;;12.10;99.90;;;;;;5116080;28;20200;-65
2024/01/24 06:07:06;;;;;;;17.17;4.63;;;12.10;99.90;;;;;;5116454;28;20168;-65
2024/01/24 06:09:32;;;;;;;15.57;4.55;;;12.10;98.60;;;;;;5116642;28;20203;-65
2024/01/24 06:11:59;;;;;;;10.82;4.82;;;12.10;92.10;;;;;;5116619;28;20550;-65
2024/01/24 06:14:24;;;;;;;25.63;6.78;;;12.10;61.90;;;;;;5116053;28;20184;-64
2024/01/24 06:16:50;;;;;;;8.52;4.40;;;12.10;57.00;;;;;;5116216;27;20173;-65
2024/01/24 06:19:16;;;;;;;13.70;4.78;;;12.10;30.00;;;;;;5115691;28;20204;-64
2024/01/24 06:21:42;;;;;;;12.32;5.10;;;12.10;1.00;;;;;;5115915;27;20169;-64
2024/01/24 06:24:08;;;;;;;10.38;4.47;;;12.10;1.00;;;;;;5115917;28;20579;-64
2024/01/24 06:26:34;;;;;;;10.73;5.15;;;12.20;26.30;;;;;;5116303;28;20176;-65
2024/01/24 06:29:01;;;;;;;15.73;5.28;;;12.20;1.00;;;;;;5114353;28;20197;-65
2024/01/24 06:31:26;;;;;;;11.23;4.43;;;12.10;1.00;;;;;;5115664;28;20511;-65
2024/01/24 06:33:53;;;;;;;12.38;5.00;;;12.20;1.00;;;;;;5114555;28;20168;-65
2024/01/24 06:36:20;;;;;;;12.57;5.03;;;12.20;1.00;;;;;;5114188;28;20188;-66
2024/01/24 06:38:46;;;;;;;12.48;4.68;;;12.20;1.00;;;;;;5115546;27;20188;-65
2024/01/24 06:41:13;;;;;;;14.77;5.07;;;12.10;1.00;;;;;;5115760;28;20193;-64
2024/01/24 06:43:42;;;;;;;16.73;5.10;;;12.00;1.00;;;;;;5115729;28;20176;-65
2024/01/24 06:46:08;;;;;;;12.93;4.70;;;12.00;1.00;;;;;;5115420;28;20207;-65
2024/01/24 06:48:34;;;;;;;20.13;5.30;;;12.10;1.00;;;;;;5114048;28;20203;-65
2024/01/24 06:51:00;;;;;;;11.85;5.43;;;12.00;1.00;;;;;;5113819;28;20279;-64
2024/01/24 06:53:26;;;;;;;11.35;4.78;;;12.00;1.00;;;;;;5115511;28;20255;-66
2024/01/24 06:55:52;;;;;;;12.52;5.03;;;12.10;1.00;;;;;;5115179;28;20175;-65
2024/01/24 06:58:18;;;;;;;14.65;5.47;;;12.10;1.00;;;;;;5115064;28;20192;-64
2024/01/24 07:00:44;;;;;;;15.80;6.57;;;12.00;1.00;;;;;;5115005;27;20176;-65
2024/01/24 07:03:10;;;;;;;16.50;5.25;;;12.10;1.00;;;;;;5114798;28;20179;-66
2024/01/24 07:05:36;;;;;;;19.23;5.50;;;12.10;1.00;;;;;;5114861;28;20192;-65
2024/01/24 07:08:02;;;;;;;18.23;6.00;;;12.20;1.00;;;;;;5115191;28;20729;-65
2024/01/24 07:10:27;;;;;;;17.90;6.30;;;12.10;99.90;;;;;;5114949;28;20157;-65
2024/01/24 07:12:54;;;;;;;21.27;5.80;;;12.10;1.00;;;;;;5115152;28;20197;-66
2024/01/24 07:15:20;;;;;;;16.33;6.18;;;12.10;1.00;;;;;;5113466;28;20188;-64
2024/01/24 07:17:46;;;;;;;25.02;6.57;;;12.00;1.00;;;;;;5114603;28;20196;-65
2024/01/24 07:20:13;;;;;;;20.48;6.47;;;12.00;1.00;;;;;;5114445;28;20251;-64
2024/01/24 07:22:38;;;;;;;19.80;5.95;;;11.90;1.00;;;;;;5114698;28;20185;-65
2024/01/24 07:25:07;;;;;;;18.10;6.22;;;11.90;1.00;;;;;;5115136;28;20196;-66
2024/01/24 07:27:33;;;;;;;14.18;5.57;;;11.90;1.00;;;;;;5114611;28;20218;-65
2024/01/24 07:29:59;;;;;;;16.55;5.93;;;11.80;1.00;;;;;;5114444;28;20657;-65
2024/01/24 07:32:24;;;;;;;16.45;5.95;;;11.80;1.00;;;;;;5114636;28;20176;-65
2024/01/24 07:34:50;;;;;;;17.98;6.65;;;11.80;1.00;;;;;;5114280;28;20168;-64
2024/01/24 07:37:16;;;;;;;22.92;6.93;;;11.80;1.00;;;;;;5114782;28;20568;-65
2024/01/24 07:39:41;;;;;;;16.48;6.05;;;11.80;1.00;;;;;;5114615;28;20172;-64
2024/01/24 07:42:08;;;;;;;17.70;6.15;;;11.80;1.00;;;;;;5114421;28;20739;-64
2024/01/24 07:44:33;;;;;;;20.35;6.93;;;11.70;1.00;;;;;;5114281;28;20196;-64
2024/01/24 07:47:01;;;;;;;13.68;5.53;;;11.60;6.00;;;;;;5114025;28;20705;-65
2024/01/24 07:49:27;;;;;;;18.95;6.45;;;11.50;18.20;;;;;;5114048;28;20667;-64
2024/01/24 07:51:52;;;;;;;21.50;6.70;;;11.40;30.20;;;;;;5114109;28;20189;-64
2024/01/24 07:54:18;;;;;;;19.17;7.15;;;11.40;1.00;;;;;;5114161;28;20199;-64
2024/01/24 07:56:44;;;;;;;21.25;7.93;;;11.40;1.00;;;;;;5114008;28;20249;-64
2024/01/24 07:59:15;;;;;;;21.00;6.85;;;11.40;5.80;;;;;;5112712;28;20192;-65
2024/01/24 08:01:42;;;;;;;22.50;6.45;;;11.40;1.00;;;;;;5114057;28;20609;-63
2024/01/24 08:04:08;;;;;;;22.27;7.85;;;11.30;1.00;;;;;;5113632;28;20168;-64
2024/01/24 08:06:34;;;;;;;25.35;7.80;;;11.20;44.80;;;;;;5113929;28;20687;-64
2024/01/24 08:09:00;;;;;;;18.23;6.45;;;11.20;66.30;;;;;;5113914;28;20275;-65
2024/01/24 08:11:26;;;;;;;23.63;7.30;;;11.20;36.70;;;;;;5114007;28;20264;-64
2024/01/24 08:13:51;;;;;;;23.67;7.07;;;11.30;1.00;;;;;;5114287;28;20583;-64
2024/01/24 08:16:18;;;;;;;24.40;7.43;;;11.40;1.00;;;;;;5113984;28;20177;-64
2024/01/24 08:18:45;;;;;;;23.00;7.35;;;11.40;1.00;;;;;;5114012;28;20245;-64
2024/01/24 08:21:11;;;;;;;16.67;6.43;;;11.40;1.00;;;;;;5113749;28;20180;-64
2024/01/24 08:23:36;;;;;;;21.60;6.65;;;11.40;1.00;;;;;;5113674;28;20177;-63
2024/01/24 08:26:02;;;;;;;26.55;7.68;;;11.40;1.00;;;;;;5113993;28;20220;-64
2024/01/24 08:28:28;;;;;;;26.98;7.70;;;11.40;1.00;;;;;;5113828;28;20207;-64
2024/01/24 08:30:54;;;;;;;20.08;7.70;;;11.40;1.00;;;;;;5113747;28;20522;-64
2024/01/24 08:33:20;;;;;;;19.88;7.07;;;11.40;99.90;;;;;;5113373;28;20179;-64
2024/01/24 08:35:45;;;;;;;24.20;7.47;;;11.40;99.90;;;;;;5113878;28;20229;-64
2024/01/24 08:38:11;;;;;;;26.23;7.50;;;11.40;99.90;;;;;;5112326;28;20253;-65
2024/01/24 08:40:39;;;;;;;23.63;7.03;;;11.40;34.30;;;;;;5113502;28;20229;-64
2024/01/24 08:43:04;;;;;;;24.13;7.18;;;11.40;1.00;;;;;;5113502;28;20259;-64
2024/01/24 08:45:31;;;;;;;19.08;7.30;;;11.40;1.00;;;;;;5113741;28;20275;-64
2024/01/24 08:47:57;;;;;;;26.92;8.00;;;11.40;1.00;;;;;;5113413;28;20192;-64
2024/01/24 08:50:24;;;;;;;26.23;6.95;;;11.40;1.50;;;;;;5113175;28;20168;-63
2024/01/24 08:52:51;;;;;;;23.92;7.13;;;11.40;1.00;;;;;;5114140;28;20567;-65
2024/01/24 08:55:17;;;;;;;19.77;7.35;;;11.40;1.00;;;;;;5112209;28;20554;-65
2024/01/24 08:57:43;;;;;;;26.08;9.50;;;11.40;1.00;;;;;;5114611;28;20738;-64
2024/01/24 09:00:11;;;;;;;20.50;7.60;;;11.40;1.00;;;;;;5117452;27;20199;-64
2024/01/24 09:02:37;;;;;;;25.88;7.80;;;11.40;1.00;;;;;;5117787;28;20656;-64
2024/01/24 09:05:03;;;;;;;25.20;7.75;;;11.40;99.90;;;;;;5115686;28;20195;-65
2024/01/24 09:07:29;;;;;;;22.40;8.27;;;11.40;99.90;;;;;;5117415;28;20192;-66
2024/01/24 09:09:55;;;;;;;25.90;7.78;;;11.40;99.90;;;;;;5118019;28;20191;-65
2024/01/24 09:12:21;;;;;;;24.20;7.65;;;11.40;99.90;;;;;;5117302;28;20172;-65
2024/01/24 09:14:47;;;;;;;27.38;8.40;;;11.40;99.90;;;;;;5117541;28;20172;-64
2024/01/24 09:17:13;;;;;;;27.33;7.95;;;11.50;1.00;;;;;;5117173;28;20542;-64
2024/01/24 09:19:42;;;;;;;22.10;7.57;;;11.50;1.00;;;;;;5117081;28;20548;-64
2024/01/24 09:22:09;;;;;;;28.67;8.25;;;11.50;99.90;;;;;;5117122;28;20176;-65
2024/01/24 09:24:35;;;;;;;22.13;6.90;;;11.60;99.90;;;;;;5117002;28;20562;-64
2024/01/24 09:27:02;;;;;;;30.15;7.80;;;11.60;1.00;;;;;;5115671;28;20172;-64
2024/01/24 09:29:28;;;;;;;24.73;6.97;;;11.50;99.90;;;;;;5116932;28;20221;-64
2024/01/24 09:31:54;;;;;;;24.85;7.20;;;11.50;1.00;;;;;;5116877;28;20177;-65
2024/01/24 09:34:20;;;;;;;26.80;7.95;;;11.50;1.00;;;;;;5116748;28;20160;-64
2024/01/24 09:36:47;;;;;;;35.22;8.52;;;11.40;1.00;;;;;;5116811;28;20167;-65
2024/01/24 09:39:12;;;;;;;22.65;7.35;;;11.40;1.00;;;;;;5116600;28;20184;-64
2024/01/24 09:41:40;;;;;;;26.40;7.20;;;11.30;1.00;;;;;;5116864;28;20536;-65
2024/01/24 09:44:09;;;;;;;32.92;7.45;;;11.30;99.90;;;;;;5116661;28;20168;-64
2024/01/24 09:46:36;;;;;;;21.25;7.13;;;11.40;1.00;;;;;;5116591;28;20168;-64
2024/01/24 09:49:03;;;;;;;28.92;8.63;;;11.30;99.90;;;;;;5116270;28;20263;-64
2024/01/24 09:51:35;;;;;;;26.17;7.55;;;11.30;99.90;;;;;;5116446;28;20184;-64
2024/01/24 09:54:05;;;;;;;27.45;7.63;;;11.30;99.90;;;;;;5116464;28;20157;-65
2024/01/24 09:56:37;;;;;;;33.85;8.80;;;11.30;1.00;;;;;;5116619;28;20161;-64
2024/01/24 09:59:07;;;;;;;21.90;8.05;;;11.20;1.00;;;;;;5116459;28;20204;-64
2024/01/24 10:01:38;;;;;;;26.48;7.22;;;11.20;99.90;;;;;;5116425;28;20552;-64
2024/01/24 10:04:05;;;;;;;28.05;8.30;;;11.20;99.90;;;;;;5115981;28;20207;-67
2024/01/24 10:06:32;;;;;;;17.83;7.28;;;11.20;99.90;;;;;;5116305;28;20519;-64
2024/01/24 10:08:58;;;;;;;23.30;7.47;;;11.20;99.90;;;;;;5114900;28;20271;-65
2024/01/24 10:11:25;;;;;;;33.25;8.68;;;11.20;1.00;;;;;;5116395;28;20247;-65
2024/01/24 10:13:56;;;;;;;26.60;8.63;;;11.20;1.00;;;;;;5115995;28;20185;-65
2024/01/24 10:16:26;;;;;;;21.02;7.93;;;11.20;99.90;;;;;;5115075;28;20246;-64
2024/01/24 10:18:56;;;;;;;30.15;8.68;;;11.20;1.00;;;;;;5114485;28;20204;-64
2024/01/24 10:21:22;;;;;;;26.50;7.35;;;11.20;99.90;;;;;;5116030;28;20169;-64
2024/01/24 10:23:48;;;;;;;31.77;7.93;;;11.10;1.00;;;;;;5116213;28;20179;-65
2024/01/24 10:26:17;;;;;;;29.02;8.95;;;11.10;1.00;;;;;;5115851;28;20592;-64
2024/01/24 10:28:46;;;;;;;33.38;8.80;;;11.10;1.00;;;;;;5115870;28;20221;-64
2024/01/24 10:31:12;;;;;;;29.52;8.13;;;11.10;99.90;;;;;;5115643;28;20644;-64
2024/01/24 10:33:38;;;;;;;31.45;9.32;;;11.10;8.50;;;;;;5114293;28;20169;-64
2024/01/24 10:36:06;;;;;;;22.05;7.97;;;11.10;99.90;;;;;;5115728;28;20725;-64
2024/01/24 10:38:32;;;;;;;29.30;7.88;;;11.20;1.00;;;;;;5115553;28;20599;-64
2024/01/24 10:41:00;;;;;;;22.65;6.90;;;11.10;99.90;;;;;;5115689;28;20180;-65
2024/01/24 10:43:27;;;;;;;32.78;8.38;;;11.20;99.90;;;;;;5115611;28;20184;-66
2024/01/24 10:45:54;;;;;;;21.55;7.25;;;11.10;99.90;;;;;;5115406;28;20279;-64
2024/01/24 10:48:20;;;;;;;28.25;8.13;;;11.10;99.90;;;;;;5115516;28;20200;-64
2024/01/24 10:50:47;;;;;;;24.92;7.85;;;11.10;99.90;;;;;;5114956;28;20184;-64
2024/01/24 10:53:14;;;;;;;25.23;8.27;;;11.10;1.00;;;;;;5115592;28;20198;-64
2024/01/24 10:55:42;;;;;;;24.70;8.75;;;11.20;1.00;;;;;;5115242;28;20176;-64
2024/01/24 10:58:11;;;;;;;26.05;8.38;;;11.10;99.90;;;;;;5115574;28;20203;-65
2024/01/24 11:00:41;;;;;;;20.70;7.88;;;11.10;99.90;;;;;;5115246;28;20204;-66
2024/01/24 11:03:07;;;;;;;31.33;8.18;;;11.10;99.90;;;;;;5115017;28;20179;-65
2024/01/24 11:05:36;;;;;;;30.55;8.35;;;11.10;99.90;;;;;;5096460;28;20211;-65
2024/01/24 11:08:08;;;;;;;20.63;7.28;;;11.10;99.90;;;;;;5115241;28;20581;-65
2024/01/24 11:10:37;;;;;;;26.27;8.73;;;11.10;99.90;;;;;;5115059;28;20157;-64
2024/01/24 11:13:05;;;;;;;18.65;7.18;;;11.00;99.90;;;;;;5114877;28;20622;-64
2024/01/24 11:15:31;;;;;;;30.20;7.88;;;11.00;99.90;;;;;;5114792;28;20173;-63
2024/01/24 11:18:24;;;;;;;29.58;7.28;;;11.00;99.90;;;;;;5114819;28;20184;-64
2024/01/24 11:20:54;;;;;;;31.92;8.00;;;11.00;99.90;;;;;;5114057;28;20169;-64
2024/01/24 11:23:44;;;;;;;23.52;8.68;;;11.00;1.00;;;;;;5113509;28;20176;-65
2024/01/24 11:26:30;;;;;;;19.52;7.88;;;11.00;99.90;;;;;;5114574;28;20216;-65
2024/01/24 11:29:10;;;;;;;31.30;7.95;;;11.00;99.90;;;;;;5107082;28;20287;-64
2024/01/24 11:31:38;;;;;;;25.98;8.25;;;11.00;99.90;;;;;;5113217;28;20270;-64
2024/01/24 11:34:11;;;;;;;35.65;8.52;;;11.00;1.00;;;;;;5114225;28;20256;-65
2024/01/24 11:36:52;;;;;;;33.55;8.90;;;11.00;1.00;;;;;;5113266;28;20176;-66
2024/01/24 11:39:31;;;;;;;26.58;7.93;;;11.00;1.00;;;;;;5114548;28;20185;-66
2024/01/24 11:42:26;;;;;;;28.02;8.27;;;11.00;1.00;;;;;;5113066;28;20172;-64
2024/01/24 11:45:12;;;;;;;26.35;7.65;;;11.00;99.90;;;;;;5114253;28;20196;-65
2024/01/24 11:47:39;;;;;;;25.52;8.07;;;10.90;1.00;;;;;;5114157;28;20192;-66
2024/01/24 11:50:05;;;;;;;27.67;7.70;;;11.00;99.90;;;;;;5114101;28;20183;-64
2024/01/24 11:52:30;;;;;;;24.42;7.70;;;10.90;99.90;;;;;;5114090;28;20215;-65
2024/01/24 11:54:56;;;;;;;25.75;8.50;;;11.00;1.00;;;;;;5114712;28;20200;-64
2024/01/24 11:57:22;;;;;;;26.95;7.78;;;10.90;1.00;;;;;;5114277;28;20202;-65
2024/01/24 11:59:48;;;;;;;26.00;7.53;;;11.00;1.00;;;;;;5114386;28;20239;-64
2024/01/24 12:02:13;;;;;;;24.15;7.28;;;10.90;99.90;;;;;;5114082;28;20172;-65
2024/01/24 12:04:40;;;;;;;21.60;8.05;;;10.90;99.90;;;;;;5113627;28;20207;-64
2024/01/24 12:07:07;;;;;;;23.13;7.82;;;10.90;99.90;;;;;;5113987;28;20184;-64
2024/01/24 12:09:33;;;;;;;28.05;7.75;;;10.90;99.90;;;;;;5112648;28;20204;-64
2024/01/24 12:11:59;;;;;;;26.70;7.80;;;10.90;1.00;;;;;;5113764;28;20187;-64
2024/01/24 12:14:25;;;;;;;32.05;7.90;;;10.90;1.00;;;;;;5114529;28;20173;-65
2024/01/24 12:16:52;;;;;;;23.92;7.25;;;10.90;99.90;;;;;;5114205;28;20169;-65
2024/01/24 12:19:18;;;;;;;26.02;7.30;;;10.90;1.00;;;;;;5113627;28;20263;-66
2024/01/24 12:21:44;;;;;;;23.40;7.85;;;10.90;1.00;;;;;;5113856;28;20175;-65
2024/01/24 12:24:10;;;;;;;23.02;7.75;;;10.90;1.00;;;;;;5113797;28;20518;-66
2024/01/24 12:26:37;;;;;;;27.77;8.82;;;10.90;99.90;;;;;;5113901;28;20175;-67
2024/01/24 12:29:05;;;;;;;22.27;7.38;;;10.90;99.90;;;;;;5113701;28;20196;-65
2024/01/24 12:31:31;;;;;;;23.77;6.97;;;10.90;99.90;;;;;;5113278;28;20181;-66
2024/01/24 12:33:57;;;;;;;24.20;7.47;;;10.90;1.00;;;;;;5111682;28;20183;-66
2024/01/24 12:36:23;;;;;;;29.30;7.38;;;10.90;1.00;;;;;;5113687;28;20196;-65
2024/01/24 12:38:51;;;;;;;21.25;7.10;;;10.90;1.00;;;;;;5113714;28;20189;-67
2024/01/24 12:41:18;;;;;;;37.92;8.05;;;10.90;1.00;;;;;;5112433;28;20177;-66